createdAt,value
2019-05-10T00:01:41.256Z,9.10
2019-05-10T00:04:27.500Z,9.10
2019-05-10T00:07:13.931Z,9.10
2019-05-10T00:09:41.895Z,9.10
2019-05-10T00:12:12.166Z,9.10
2019-05-10T00:14:45.101Z,9.10
2019-05-10T00:17:15.022Z,9.10
2019-05-10T00:19:43.654Z,9.10
2019-05-10T00:22:12.318Z,9.10
2019-05-10T00:24:41.279Z,9.10
2019-05-10T00:27:10.301Z,9.20
2019-05-10T00:29:38.890Z,9.10
2019-05-10T00:32:07.610Z,9.10
2019-05-10T00:34:36.634Z,9.10
2019-05-10T00:37:05.623Z,9.20
2019-05-10T00:39:34.338Z,9.30
2019-05-10T00:42:03.079Z,9.40
2019-05-10T00:44:31.654Z,9.50
2019-05-10T00:47:00.278Z,9.60
2019-05-10T00:49:28.828Z,9.60
2019-05-10T00:51:57.479Z,9.70
2019-05-10T00:54:26.066Z,9.70
2019-05-10T00:56:54.687Z,9.70
2019-05-10T00:59:23.603Z,9.80
2019-05-10T01:01:52.351Z,9.80
2019-05-10T01:04:20.930Z,9.80
2019-05-10T01:06:49.842Z,9.70
2019-05-10T01:09:18.403Z,9.70
2019-05-10T01:11:47.055Z,9.70
2019-05-10T01:14:16.103Z,9.70
2019-05-10T01:16:44.987Z,9.70
2019-05-10T01:19:13.621Z,9.60
2019-05-10T01:21:42.466Z,9.60
2019-05-10T01:24:11.086Z,9.60
2019-05-10T01:26:39.715Z,9.50
2019-05-10T01:29:08.338Z,9.40
2019-05-10T01:31:37.058Z,9.40
2019-05-10T01:34:06.003Z,9.30
2019-05-10T01:36:34.992Z,9.20
2019-05-10T01:39:04.046Z,9.10
2019-05-10T01:41:33.071Z,9.00
2019-05-10T01:44:01.712Z,9.10
2019-05-10T01:46:30.290Z,9.10
2019-05-10T01:48:58.914Z,9.10
2019-05-10T01:51:28.071Z,9.20
2019-05-10T01:53:56.771Z,9.10
2019-05-10T01:56:25.406Z,9.10
2019-05-10T01:58:54.135Z,9.10
2019-05-10T02:01:22.759Z,9.10
2019-05-10T02:03:51.410Z,9.10
2019-05-10T02:06:20.130Z,9.00
2019-05-10T02:08:49.219Z,8.80
2019-05-10T02:11:17.951Z,8.70
2019-05-10T02:13:46.799Z,8.50
2019-05-10T02:16:15.420Z,8.40
2019-05-10T02:18:44.267Z,8.30
2019-05-10T02:21:12.842Z,8.20
2019-05-10T02:23:41.475Z,8.10
2019-05-10T02:26:10.245Z,8.00
2019-05-10T02:28:38.807Z,7.90
2019-05-10T02:31:07.813Z,7.80
2019-05-10T02:33:36.499Z,7.80
2019-05-10T02:36:05.522Z,7.80
2019-05-10T02:38:34.072Z,7.80
2019-05-10T02:41:02.867Z,7.80
2019-05-10T02:43:31.727Z,7.80
2019-05-10T02:46:00.316Z,7.80
2019-05-10T02:48:29.035Z,7.70
2019-05-10T02:50:57.928Z,7.70
2019-05-10T02:53:26.692Z,7.70
2019-05-10T02:55:56.076Z,7.60
2019-05-10T02:58:24.848Z,7.60
2019-05-10T03:00:55.719Z,7.50
2019-05-10T03:03:26.594Z,7.50
2019-05-10T03:05:56.276Z,7.40
2019-05-10T03:08:25.066Z,7.30
2019-05-10T03:10:57.873Z,7.30
2019-05-10T03:13:28.355Z,7.20
2019-05-10T03:15:59.120Z,7.10
2019-05-10T03:18:30.847Z,7.10
2019-05-10T03:21:02.371Z,7.10
2019-05-10T03:23:31.001Z,7.00
2019-05-10T03:25:59.797Z,7.10
2019-05-10T03:28:28.516Z,7.10
2019-05-10T03:30:57.226Z,7.00
2019-05-10T03:33:25.881Z,7.00
2019-05-10T03:35:54.603Z,6.90
2019-05-10T03:38:23.501Z,6.90
2019-05-10T03:40:52.432Z,6.80
2019-05-10T03:43:21.384Z,6.80
2019-05-10T03:45:50.276Z,6.70
2019-05-10T03:48:18.900Z,6.60
2019-05-10T03:50:47.459Z,6.60
2019-05-10T03:53:16.044Z,6.60
2019-05-10T03:55:44.675Z,6.70
2019-05-10T03:58:13.328Z,6.70
2019-05-10T04:00:42.288Z,6.80
2019-05-10T04:03:11.138Z,6.80
2019-05-10T04:05:39.719Z,6.80
2019-05-10T04:08:08.441Z,6.80
2019-05-10T04:10:37.342Z,6.70
2019-05-10T04:13:06.042Z,6.70
2019-05-10T04:15:34.590Z,6.60
2019-05-10T04:18:03.315Z,6.60
2019-05-10T04:20:32.278Z,6.60
2019-05-10T04:23:00.895Z,6.60
2019-05-10T04:25:29.850Z,6.70
2019-05-10T04:27:58.474Z,6.70
2019-05-10T04:30:31.529Z,6.70
2019-05-10T04:32:57.636Z,6.70
2019-05-10T04:35:26.359Z,6.70
2019-05-10T04:37:55.329Z,6.80
2019-05-10T04:40:23.950Z,6.80
2019-05-10T04:42:52.651Z,6.90
2019-05-10T04:45:21.303Z,7.00
2019-05-10T04:47:49.914Z,7.10
2019-05-10T04:50:18.545Z,7.20
2019-05-10T04:52:47.167Z,7.30
2019-05-10T04:55:16.129Z,7.30
2019-05-10T04:57:50.769Z,7.40
2019-05-10T05:00:15.389Z,7.40
2019-05-10T05:02:44.166Z,7.50
2019-05-10T05:05:12.892Z,7.50
2019-05-10T05:07:41.487Z,7.60
2019-05-10T05:10:10.202Z,7.60
2019-05-10T05:12:38.767Z,7.70
2019-05-10T05:15:09.202Z,7.80
2019-05-10T05:17:37.895Z,7.90
2019-05-10T05:20:07.179Z,7.90
2019-05-10T05:22:35.754Z,8.00
2019-05-10T05:25:08.491Z,8.10
2019-05-10T05:27:37.507Z,8.20
2019-05-10T05:30:07.827Z,8.40
2019-05-10T05:32:38.532Z,8.50
2019-05-10T05:35:08.091Z,8.70
2019-05-10T05:37:36.690Z,8.70
2019-05-10T05:40:07.174Z,8.70
2019-05-10T05:42:36.094Z,8.70
2019-05-10T05:45:06.594Z,8.80
2019-05-10T05:47:37.656Z,9.00
2019-05-10T05:50:07.092Z,9.10
2019-05-10T05:52:35.956Z,9.20
2019-05-10T05:55:06.679Z,9.10
2019-05-10T05:57:35.685Z,9.40
2019-05-10T06:00:06.806Z,9.60
2019-05-10T06:02:43.954Z,9.60
2019-05-10T06:05:06.422Z,9.60
2019-05-10T06:07:38.066Z,9.70
2019-05-10T06:10:10.073Z,9.80
2019-05-10T06:12:38.434Z,9.90
2019-05-10T06:15:08.499Z,10.10
2019-05-10T06:17:37.473Z,10.20
2019-05-10T06:20:07.762Z,10.40
2019-05-10T06:22:38.047Z,10.60
2019-05-10T06:25:08.391Z,10.70
2019-05-10T06:27:41.014Z,10.80
2019-05-10T06:30:08.543Z,10.90
2019-05-10T06:32:37.455Z,11.10
2019-05-10T06:35:07.499Z,11.20
2019-05-10T06:37:36.223Z,11.30
2019-05-10T06:40:07.324Z,11.50
2019-05-10T06:42:36.871Z,11.60
2019-05-10T06:45:14.530Z,11.70
2019-05-10T06:47:41.929Z,12.00
2019-05-10T06:50:09.611Z,13.10
2019-05-10T06:52:38.334Z,14.00
2019-05-10T06:55:07.915Z,14.90
2019-05-10T06:57:36.794Z,16.20
2019-05-10T07:00:08.121Z,16.90
2019-05-10T07:02:36.846Z,18.00
2019-05-10T07:05:06.125Z,20.60
2019-05-10T07:07:43.709Z,23.70
2019-05-10T07:10:17.991Z,25.80
2019-05-10T07:12:37.680Z,27.10
2019-05-10T07:15:07.171Z,26.70
2019-05-10T07:17:41.297Z,27.90
2019-05-10T07:20:08.383Z,28.70
2019-05-10T07:22:37.012Z,28.80
2019-05-10T07:25:08.856Z,29.00
2019-05-10T07:27:38.616Z,29.00
2019-05-10T07:30:08.563Z,29.70
2019-05-10T07:32:37.178Z,30.00
2019-05-10T07:35:07.016Z,30.30
2019-05-10T07:37:35.815Z,30.90
2019-05-10T07:40:06.867Z,31.40
2019-05-10T07:42:39.875Z,31.60
2019-05-10T07:45:07.316Z,31.80
2019-05-10T07:47:36.321Z,32.00
2019-05-10T07:50:11.448Z,31.20
2019-05-10T07:52:43.411Z,31.20
2019-05-10T07:55:10.481Z,30.50
2019-05-10T07:57:39.571Z,30.30
2019-05-10T08:00:08.944Z,29.60
2019-05-10T08:02:37.603Z,30.10
2019-05-10T08:05:11.082Z,30.30
2019-05-10T08:07:38.683Z,30.70
2019-05-10T08:10:08.924Z,31.60
2019-05-10T08:12:41.325Z,31.90
2019-05-10T08:15:09.079Z,31.00
2019-05-10T08:17:43.205Z,30.90
2019-05-10T08:20:14.604Z,31.10
2019-05-10T08:22:41.318Z,30.50
2019-05-10T08:25:09.824Z,30.50
2019-05-10T08:27:43.928Z,30.60
2019-05-10T08:30:24.389Z,30.40
2019-05-10T08:32:42.344Z,30.70
2019-05-10T08:35:16.311Z,30.90
2019-05-10T08:37:43.035Z,30.50
2019-05-10T08:40:12.805Z,31.00
2019-05-10T08:42:48.120Z,31.30
2019-05-10T08:45:12.634Z,31.50
2019-05-10T08:47:42.723Z,31.20
2019-05-10T08:50:28.885Z,30.60
2019-05-10T08:52:43.610Z,31.30
2019-05-10T08:55:12.567Z,32.00
2019-05-10T08:57:44.545Z,32.20
2019-05-10T09:00:12.990Z,32.30
2019-05-10T09:02:42.709Z,32.10
2019-05-10T09:05:12.617Z,32.30
2019-05-10T09:07:42.947Z,32.10
2019-05-10T09:10:12.966Z,31.90
2019-05-10T09:12:50.671Z,32.40
2019-05-10T09:15:13.516Z,31.00
2019-05-10T09:17:42.970Z,30.80
2019-05-10T09:20:20.746Z,31.20
2019-05-10T09:22:42.817Z,31.80
2019-05-10T09:25:12.809Z,31.80
2019-05-10T09:27:43.311Z,31.80
2019-05-10T09:30:14.271Z,31.90
2019-05-10T09:32:43.702Z,31.90
2019-05-10T09:35:12.967Z,31.30
2019-05-10T09:37:42.240Z,31.50
2019-05-10T09:40:13.209Z,31.10
2019-05-10T09:42:43.591Z,31.10
2019-05-10T09:45:13.087Z,31.10
2019-05-10T09:47:43.644Z,30.80
2019-05-10T09:50:12.986Z,30.90
2019-05-10T09:52:41.679Z,30.80
2019-05-10T09:55:14.647Z,30.80
2019-05-10T09:57:41.191Z,31.40
2019-05-10T10:00:10.673Z,31.50
2019-05-10T10:02:40.662Z,31.20
2019-05-10T10:05:09.977Z,31.40
2019-05-10T10:07:39.032Z,31.20
2019-05-10T10:10:12.705Z,30.40
2019-05-10T10:12:38.475Z,30.30
2019-05-10T10:15:10.730Z,30.00
2019-05-10T10:17:42.110Z,29.90
2019-05-10T10:20:08.665Z,30.60
2019-05-10T10:22:38.088Z,31.30
2019-05-10T10:25:07.710Z,30.90
2019-05-10T10:27:39.302Z,30.90
2019-05-10T10:30:12.887Z,31.10
2019-05-10T10:32:39.511Z,31.50
2019-05-10T10:35:13.194Z,30.90
2019-05-10T10:37:39.611Z,31.40
2019-05-10T10:40:09.168Z,31.20
2019-05-10T10:42:38.338Z,31.30
2019-05-10T10:45:09.095Z,31.10
2019-05-10T10:47:38.351Z,31.50
2019-05-10T10:50:13.270Z,31.40
2019-05-10T10:52:38.644Z,31.60
2019-05-10T10:55:11.413Z,31.80
2019-05-10T10:57:40.026Z,31.20
2019-05-10T11:00:10.547Z,31.70
2019-05-10T11:02:41.737Z,31.70
2019-05-10T11:05:10.015Z,30.90
2019-05-10T11:07:44.188Z,30.10
2019-05-10T11:10:16.062Z,29.10
2019-05-10T11:12:41.278Z,29.10
2019-05-10T11:15:11.411Z,28.60
2019-05-10T11:17:40.900Z,29.00
2019-05-10T11:20:11.535Z,29.20
2019-05-10T11:22:42.927Z,28.40
2019-05-10T11:25:12.937Z,28.10
2019-05-10T11:27:41.730Z,28.10
2019-05-10T11:30:12.170Z,28.30
2019-05-10T11:32:41.865Z,28.30
2019-05-10T11:35:11.907Z,28.00
2019-05-10T11:37:45.322Z,27.50
2019-05-10T11:40:12.608Z,27.00
2019-05-10T11:42:43.793Z,27.10
2019-05-10T11:45:12.580Z,26.70
2019-05-10T11:47:41.139Z,26.30
2019-05-10T11:50:26.596Z,26.00
2019-05-10T11:52:41.668Z,25.20
2019-05-10T11:55:11.459Z,24.00
2019-05-10T11:57:44.074Z,23.10
2019-05-10T12:00:24.499Z,23.00
2019-05-10T12:03:01.033Z,23.10
2019-05-10T12:05:20.029Z,23.10
2019-05-10T12:10:20.663Z,22.90
2019-05-10T12:13:00.445Z,22.60
2019-05-10T12:15:14.227Z,22.30
2019-05-10T12:20:16.985Z,22.20
2019-05-10T12:22:47.257Z,22.20
2019-05-10T12:25:36.089Z,22.20
2019-05-10T12:26:16.656Z,23.10
2019-05-10T12:26:49.373Z,22.10
2019-05-10T12:27:48.956Z,22.10
2019-05-10T12:30:16.028Z,22.00
2019-05-10T12:32:55.745Z,21.80
2019-05-10T12:35:15.682Z,21.60
2019-05-10T12:37:46.259Z,21.10
2019-05-10T12:40:15.814Z,20.60
2019-05-10T12:42:46.826Z,20.60
2019-05-10T12:45:15.224Z,20.80
2019-05-10T12:47:43.845Z,20.70
2019-05-10T12:50:12.945Z,20.70
2019-05-10T12:52:43.249Z,20.80
2019-05-10T12:55:11.960Z,20.90
2019-05-10T12:57:43.114Z,21.30
2019-05-10T13:00:15.756Z,21.70
2019-05-10T13:02:44.813Z,22.10
2019-05-10T13:05:15.395Z,22.10
2019-05-10T13:07:43.539Z,22.50
2019-05-10T13:10:13.016Z,22.80
2019-05-10T13:12:44.117Z,22.80
2019-05-10T13:15:12.542Z,22.50
2019-05-10T13:17:44.202Z,21.90
2019-05-10T13:20:12.397Z,21.70
2019-05-10T13:22:41.059Z,21.30
2019-05-10T13:25:10.421Z,20.90
2019-05-10T13:27:39.158Z,21.10
2019-05-10T13:30:08.663Z,21.40
2019-05-10T13:32:37.758Z,21.40
2019-05-10T13:35:07.160Z,21.40
2019-05-10T13:37:35.874Z,21.30
2019-05-10T13:40:08.124Z,21.10
2019-05-10T13:42:43.395Z,21.10
2019-05-10T13:45:07.458Z,21.00
2019-05-10T13:47:36.419Z,20.90
2019-05-10T13:50:07.180Z,20.90
2019-05-10T13:52:38.370Z,21.00
2019-05-10T13:55:07.307Z,21.20
2019-05-10T13:57:35.907Z,21.10
2019-05-10T14:00:07.852Z,21.10
2019-05-10T14:02:36.723Z,21.10
2019-05-10T14:05:06.455Z,21.10
2019-05-10T14:07:35.294Z,21.20
2019-05-10T14:10:05.287Z,21.20
2019-05-10T14:12:33.969Z,21.30
2019-05-10T14:15:08.289Z,21.20
2019-05-10T14:17:33.370Z,20.90
2019-05-10T14:20:02.441Z,20.60
2019-05-10T14:22:31.109Z,20.60
2019-05-10T14:25:00.035Z,20.60
2019-05-10T14:27:30.056Z,20.60
2019-05-10T14:29:58.986Z,20.70
2019-05-10T14:32:28.019Z,20.70
2019-05-10T14:34:56.609Z,20.70
2019-05-10T14:37:25.605Z,20.70
2019-05-10T14:39:54.581Z,20.70
2019-05-10T14:42:31.382Z,20.60
2019-05-10T14:44:53.448Z,20.50
2019-05-10T14:47:22.095Z,20.50
2019-05-10T14:49:50.740Z,20.60
2019-05-10T14:52:22.374Z,20.40
2019-05-10T14:54:54.828Z,20.50
2019-05-10T14:57:20.090Z,20.50
2019-05-10T14:59:48.979Z,20.60
2019-05-10T15:02:22.486Z,20.60
2019-05-10T15:04:47.775Z,20.70
2019-05-10T15:07:16.777Z,20.70
2019-05-10T15:09:46.072Z,20.80
2019-05-10T15:12:16.398Z,20.80
2019-05-10T15:14:45.053Z,20.60
2019-05-10T15:17:13.730Z,20.60
2019-05-10T15:19:42.667Z,20.60
2019-05-10T15:22:11.380Z,20.60
2019-05-10T15:24:40.014Z,20.60
2019-05-10T15:27:09.019Z,20.40
2019-05-10T15:29:37.915Z,20.20
2019-05-10T15:32:07.207Z,20.00
2019-05-10T15:34:35.808Z,20.20
2019-05-10T15:37:09.337Z,20.50
2019-05-10T15:39:35.419Z,20.60
2019-05-10T15:42:04.158Z,20.30
2019-05-10T15:44:33.904Z,20.20
2019-05-10T15:47:02.760Z,20.10
2019-05-10T15:49:31.699Z,20.10
2019-05-10T15:52:16.182Z,20.00
2019-05-10T15:54:30.690Z,19.90
2019-05-10T15:56:59.345Z,19.90
2019-05-10T15:59:28.062Z,19.80
2019-05-10T16:01:56.969Z,19.70
2019-05-10T16:04:25.566Z,19.60
2019-05-10T16:06:54.269Z,19.50
2019-05-10T16:09:23.295Z,19.30
2019-05-10T16:11:55.911Z,19.30
2019-05-10T16:14:22.120Z,19.50
2019-05-10T16:16:51.118Z,19.70
2019-05-10T16:19:21.415Z,19.70
2019-05-10T16:21:52.364Z,19.50
2019-05-10T16:27:02.951Z,18.90
2019-05-10T16:29:33.635Z,18.70
2019-05-10T16:32:01.748Z,18.50
2019-05-10T16:34:32.391Z,18.30
2019-05-10T16:37:00.615Z,18.30
2019-05-10T16:39:29.301Z,18.30
2019-05-10T16:41:57.859Z,18.40
2019-05-10T16:44:26.482Z,18.60
2019-05-10T16:46:55.383Z,18.70
2019-05-10T16:49:24.217Z,18.70
2019-05-10T16:51:53.171Z,18.60
2019-05-10T16:54:25.455Z,18.40
2019-05-10T16:56:59.412Z,18.20
2019-05-10T16:59:24.397Z,18.00
2019-05-10T17:02:03.393Z,17.80
2019-05-10T17:04:23.142Z,17.70
2019-05-10T17:06:54.564Z,17.60
2019-05-10T17:09:21.949Z,17.60
2019-05-10T17:11:50.539Z,17.60
2019-05-10T17:14:19.682Z,17.70
2019-05-10T17:16:50.156Z,17.70
2019-05-10T17:19:18.694Z,17.80
2019-05-10T17:21:47.347Z,17.90
2019-05-10T17:24:18.741Z,17.90
2019-05-10T17:26:46.211Z,17.90
2019-05-10T17:29:14.852Z,17.80
2019-05-10T17:31:45.700Z,17.80
2019-05-10T17:34:22.115Z,17.70
2019-05-10T17:36:44.351Z,17.70
2019-05-10T17:39:13.024Z,17.60
2019-05-10T17:41:41.592Z,17.50
2019-05-10T17:44:10.294Z,17.50
2019-05-10T17:46:38.874Z,17.60
2019-05-10T17:49:07.878Z,17.50
2019-05-10T17:51:36.531Z,17.50
2019-05-10T17:54:05.267Z,17.40
2019-05-10T17:56:38.875Z,17.20
2019-05-10T17:59:05.924Z,17.10
2019-05-10T18:01:34.588Z,17.00
2019-05-10T18:04:03.175Z,17.00
2019-05-10T18:06:31.836Z,17.00
2019-05-10T18:09:00.567Z,16.90
2019-05-10T18:11:29.150Z,16.90
2019-05-10T18:13:57.710Z,16.80
2019-05-10T18:16:26.366Z,16.60
2019-05-10T18:18:54.999Z,16.50
2019-05-10T18:21:24.258Z,16.40
2019-05-10T18:23:58.093Z,16.40
2019-05-10T18:26:23.195Z,16.20
2019-05-10T18:28:52.163Z,16.20
2019-05-10T18:31:20.874Z,16.10
2019-05-10T18:33:54.638Z,16.10
2019-05-10T18:36:24.829Z,16.10
2019-05-10T18:38:50.514Z,16.00
2019-05-10T18:41:19.134Z,15.90
2019-05-10T18:43:47.711Z,15.80
2019-05-10T18:46:16.335Z,15.60
2019-05-10T18:48:45.034Z,15.50
2019-05-10T18:51:17.929Z,15.40
2019-05-10T18:53:43.843Z,15.30
2019-05-10T18:56:12.499Z,15.20
2019-05-10T18:58:41.133Z,15.10
2019-05-10T19:01:10.091Z,15.00
2019-05-10T19:03:38.651Z,15.00
2019-05-10T19:06:11.290Z,15.00
2019-05-10T19:08:37.937Z,14.80
2019-05-10T19:11:06.997Z,14.80
2019-05-10T19:13:46.564Z,14.70
2019-05-10T19:16:06.523Z,14.70
2019-05-10T19:18:35.420Z,14.60
2019-05-10T19:21:04.338Z,14.60
2019-05-10T19:23:32.898Z,14.60
2019-05-10T19:26:01.860Z,14.50
2019-05-10T19:28:30.755Z,14.50
2019-05-10T19:31:00.553Z,14.50
2019-05-10T19:33:29.540Z,14.40
2019-05-10T19:35:59.880Z,14.40
2019-05-10T19:38:28.871Z,14.40
2019-05-10T19:40:57.762Z,14.40
2019-05-10T19:43:26.624Z,14.30
2019-05-10T19:45:57.450Z,14.20
2019-05-10T19:48:29.425Z,14.20
2019-05-10T19:50:56.395Z,14.30
2019-05-10T19:53:24.984Z,14.20
2019-05-10T19:55:57.215Z,14.20
2019-05-10T19:58:26.490Z,14.20
2019-05-10T20:00:54.895Z,14.10
2019-05-10T20:03:23.563Z,14.10
2019-05-10T20:05:52.499Z,14.10
2019-05-10T20:08:21.167Z,14.10
2019-05-10T20:10:49.771Z,14.00
2019-05-10T20:13:18.332Z,14.00
2019-05-10T20:15:46.966Z,14.00
2019-05-10T20:18:15.556Z,14.00
2019-05-10T20:20:44.129Z,14.00
2019-05-10T20:23:12.990Z,14.00
2019-05-10T20:25:41.553Z,14.00
2019-05-10T20:28:10.467Z,13.90
2019-05-10T20:30:39.296Z,13.80
2019-05-10T20:33:08.136Z,13.80
2019-05-10T20:35:36.730Z,13.70
2019-05-10T20:38:05.615Z,13.70
2019-05-10T20:40:37.129Z,13.70
2019-05-10T20:43:04.474Z,13.70
2019-05-10T20:45:33.030Z,13.70
2019-05-10T20:48:01.623Z,13.70
2019-05-10T20:50:30.254Z,13.70
2019-05-10T20:52:58.847Z,13.70
2019-05-10T20:55:27.579Z,13.70
2019-05-10T20:57:56.523Z,13.70
2019-05-10T21:00:25.418Z,13.60
2019-05-10T21:02:54.409Z,13.60
2019-05-10T21:05:24.137Z,13.70
2019-05-10T21:07:53.011Z,13.60
2019-05-10T21:10:21.598Z,13.70
2019-05-10T21:12:50.191Z,13.70
2019-05-10T21:15:18.823Z,13.70
2019-05-10T21:17:47.407Z,13.70
2019-05-10T21:20:16.339Z,13.70
2019-05-10T21:22:44.933Z,13.70
2019-05-10T21:25:14.112Z,13.60
2019-05-10T21:27:43.002Z,13.70
2019-05-10T21:30:11.902Z,13.70
2019-05-10T21:32:40.463Z,13.70
2019-05-10T21:35:09.187Z,13.70
2019-05-10T21:37:37.807Z,13.70
2019-05-10T21:40:07.972Z,13.60
2019-05-10T21:42:36.602Z,13.50
2019-05-10T21:45:05.746Z,13.50
2019-05-10T21:47:34.567Z,13.40
2019-05-10T21:50:04.100Z,13.40
2019-05-10T21:52:32.656Z,13.40
2019-05-10T21:55:01.258Z,13.40
2019-05-10T21:57:30.095Z,13.30
2019-05-10T21:59:58.684Z,13.30
2019-05-10T22:02:27.238Z,13.30
2019-05-10T22:04:55.795Z,13.20
2019-05-10T22:07:24.451Z,13.20
2019-05-10T22:09:53.006Z,13.10
2019-05-10T22:12:21.663Z,13.10
2019-05-10T22:14:50.525Z,13.10
2019-05-10T22:17:19.471Z,13.10
2019-05-10T22:19:48.195Z,13.00
2019-05-10T22:22:16.787Z,13.00
2019-05-10T22:24:45.378Z,13.00
2019-05-10T22:27:13.950Z,13.00
2019-05-10T22:29:42.598Z,13.00
2019-05-10T22:32:11.264Z,12.90
2019-05-10T22:34:39.828Z,12.90
2019-05-10T22:37:08.489Z,12.90
2019-05-10T22:39:37.083Z,12.90
2019-05-10T22:42:05.812Z,12.90
2019-05-10T22:44:34.443Z,12.90
2019-05-10T22:47:03.490Z,12.90
2019-05-10T22:49:32.150Z,12.80
2019-05-10T22:52:00.724Z,12.70
2019-05-10T22:54:29.385Z,12.70
2019-05-10T22:56:58.379Z,12.70
2019-05-10T22:59:26.938Z,12.60
2019-05-10T23:01:55.531Z,12.50
2019-05-10T23:04:24.146Z,12.50
2019-05-10T23:06:52.704Z,12.40
2019-05-10T23:09:24.961Z,12.30
2019-05-10T23:11:52.065Z,12.30
2019-05-10T23:14:20.690Z,12.30
2019-05-10T23:16:49.522Z,12.20
2019-05-10T23:19:18.080Z,12.20
2019-05-10T23:21:47.131Z,12.20
2019-05-10T23:24:17.149Z,12.10
2019-05-10T23:26:46.479Z,12.20
2019-05-10T23:29:15.124Z,12.10
2019-05-10T23:31:43.846Z,12.10
2019-05-10T23:34:12.757Z,12.00
2019-05-10T23:36:41.570Z,11.90
2019-05-10T23:39:10.159Z,11.90
2019-05-10T23:41:38.715Z,11.90
2019-05-10T23:44:07.382Z,11.90
2019-05-10T23:46:35.931Z,11.80
2019-05-10T23:49:04.587Z,11.80
2019-05-10T23:51:33.608Z,11.80
2019-05-10T23:54:02.240Z,11.80
2019-05-10T23:56:30.807Z,11.70
2019-05-10T23:58:59.874Z,11.70
